sensor_id;sensor_type;location;lat;lon;timestamp;P1;durP1;ratioP1;P2;durP2;ratioP2
63050;SDS011;49136;47.416;19.402;2022-08-19T00:01:53;28.38;;;11.18;;
63050;SDS011;49136;47.416;19.402;2022-08-19T00:04:21;21.88;;;10.60;;
63050;SDS011;49136;47.416;19.402;2022-08-19T00:06:49;26.88;;;11.02;;
63050;SDS011;49136;47.416;19.402;2022-08-19T00:09:16;22.73;;;10.10;;
63050;SDS011;49136;47.416;19.402;2022-08-19T00:11:43;21.30;;;11.93;;
63050;SDS011;49136;47.416;19.402;2022-08-19T00:14:10;19.80;;;11.07;;
63050;SDS011;49136;47.416;19.402;2022-08-19T00:16:38;19.02;;;10.70;;
63050;SDS011;49136;47.416;19.402;2022-08-19T00:19:05;18.35;;;11.10;;
63050;SDS011;49136;47.416;19.402;2022-08-19T00:21:30;19.08;;;10.23;;
63050;SDS011;49136;47.416;19.402;2022-08-19T00:23:56;22.85;;;10.82;;
63050;SDS011;49136;47.416;19.402;2022-08-19T00:26:26;17.10;;;9.85;;
63050;SDS011;49136;47.416;19.402;2022-08-19T00:28:52;19.92;;;11.20;;
63050;SDS011;49136;47.416;19.402;2022-08-19T00:31:18;20.85;;;11.88;;
63050;SDS011;49136;47.416;19.402;2022-08-19T00:33:44;20.90;;;11.27;;
63050;SDS011;49136;47.416;19.402;2022-08-19T00:36:10;20.98;;;10.95;;
63050;SDS011;49136;47.416;19.402;2022-08-19T00:38:36;19.35;;;10.40;;
63050;SDS011;49136;47.416;19.402;2022-08-19T00:41:04;17.02;;;11.18;;
63050;SDS011;49136;47.416;19.402;2022-08-19T00:43:30;23.67;;;11.50;;
63050;SDS011;49136;47.416;19.402;2022-08-19T00:45:56;20.23;;;10.95;;
63050;SDS011;49136;47.416;19.402;2022-08-19T00:48:21;20.55;;;11.20;;
63050;SDS011;49136;47.416;19.402;2022-08-19T00:50:48;19.83;;;10.77;;
63050;SDS011;49136;47.416;19.402;2022-08-19T00:53:16;25.42;;;11.52;;
63050;SDS011;49136;47.416;19.402;2022-08-19T00:55:46;20.50;;;11.20;;
63050;SDS011;49136;47.416;19.402;2022-08-19T00:58:16;20.90;;;11.65;;
63050;SDS011;49136;47.416;19.402;2022-08-19T01:00:44;22.35;;;11.38;;
63050;SDS011;49136;47.416;19.402;2022-08-19T01:03:12;21.20;;;11.30;;
63050;SDS011;49136;47.416;19.402;2022-08-19T01:05:39;21.00;;;11.02;;
63050;SDS011;49136;47.416;19.402;2022-08-19T01:08:07;18.50;;;11.65;;
63050;SDS011;49136;47.416;19.402;2022-08-19T01:10:40;22.70;;;11.10;;
63050;SDS011;49136;47.416;19.402;2022-08-19T01:13:08;20.90;;;11.52;;
63050;SDS011;49136;47.416;19.402;2022-08-19T01:15:38;23.50;;;10.95;;
63050;SDS011;49136;47.416;19.402;2022-08-19T01:18:09;23.27;;;10.27;;
63050;SDS011;49136;47.416;19.402;2022-08-19T01:20:37;17.48;;;12.05;;
63050;SDS011;49136;47.416;19.402;2022-08-19T01:23:02;24.80;;;12.63;;
63050;SDS011;49136;47.416;19.402;2022-08-19T01:25:33;17.88;;;11.73;;
63050;SDS011;49136;47.416;19.402;2022-08-19T01:28:18;21.20;;;11.85;;
63050;SDS011;49136;47.416;19.402;2022-08-19T01:30:45;20.95;;;11.00;;
63050;SDS011;49136;47.416;19.402;2022-08-19T01:33:11;22.80;;;11.70;;
63050;SDS011;49136;47.416;19.402;2022-08-19T01:35:38;19.17;;;11.80;;
63050;SDS011;49136;47.416;19.402;2022-08-19T01:38:06;20.25;;;11.73;;
63050;SDS011;49136;47.416;19.402;2022-08-19T01:40:33;23.55;;;11.85;;
63050;SDS011;49136;47.416;19.402;2022-08-19T01:43:01;28.17;;;12.88;;
63050;SDS011;49136;47.416;19.402;2022-08-19T01:45:28;21.00;;;12.98;;
63050;SDS011;49136;47.416;19.402;2022-08-19T01:47:56;19.50;;;11.73;;
63050;SDS011;49136;47.416;19.402;2022-08-19T01:50:22;20.77;;;11.00;;
63050;SDS011;49136;47.416;19.402;2022-08-19T01:52:47;26.60;;;12.15;;
63050;SDS011;49136;47.416;19.402;2022-08-19T01:55:15;21.83;;;11.82;;
63050;SDS011;49136;47.416;19.402;2022-08-19T01:57:43;24.00;;;11.75;;
63050;SDS011;49136;47.416;19.402;2022-08-19T02:00:12;20.25;;;11.85;;
63050;SDS011;49136;47.416;19.402;2022-08-19T02:02:40;21.38;;;11.73;;
63050;SDS011;49136;47.416;19.402;2022-08-19T02:05:06;26.45;;;13.05;;
63050;SDS011;49136;47.416;19.402;2022-08-19T02:07:33;23.92;;;12.18;;
63050;SDS011;49136;47.416;19.402;2022-08-19T02:10:00;28.90;;;11.85;;
63050;SDS011;49136;47.416;19.402;2022-08-19T02:12:29;20.08;;;11.05;;
63050;SDS011;49136;47.416;19.402;2022-08-19T02:14:55;18.48;;;11.82;;
63050;SDS011;49136;47.416;19.402;2022-08-19T02:17:20;21.70;;;11.63;;
63050;SDS011;49136;47.416;19.402;2022-08-19T02:19:46;25.00;;;11.80;;
63050;SDS011;49136;47.416;19.402;2022-08-19T02:22:11;21.98;;;12.32;;
63050;SDS011;49136;47.416;19.402;2022-08-19T02:24:37;24.58;;;11.80;;
63050;SDS011;49136;47.416;19.402;2022-08-19T02:27:03;22.05;;;12.27;;
63050;SDS011;49136;47.416;19.402;2022-08-19T02:29:29;21.27;;;12.43;;
63050;SDS011;49136;47.416;19.402;2022-08-19T02:31:55;24.85;;;13.18;;
63050;SDS011;49136;47.416;19.402;2022-08-19T02:34:20;21.58;;;12.20;;
63050;SDS011;49136;47.416;19.402;2022-08-19T02:36:45;22.95;;;12.40;;
63050;SDS011;49136;47.416;19.402;2022-08-19T02:39:11;22.27;;;11.77;;
63050;SDS011;49136;47.416;19.402;2022-08-19T02:41:36;18.10;;;12.02;;
63050;SDS011;49136;47.416;19.402;2022-08-19T02:44:02;26.98;;;11.50;;
63050;SDS011;49136;47.416;19.402;2022-08-19T02:46:30;22.90;;;12.25;;
63050;SDS011;49136;47.416;19.402;2022-08-19T02:48:59;18.33;;;10.98;;
63050;SDS011;49136;47.416;19.402;2022-08-19T02:51:37;25.40;;;12.85;;
63050;SDS011;49136;47.416;19.402;2022-08-19T02:54:06;22.85;;;12.07;;
63050;SDS011;49136;47.416;19.402;2022-08-19T02:56:36;23.58;;;11.60;;
63050;SDS011;49136;47.416;19.402;2022-08-19T02:59:03;19.80;;;11.90;;
63050;SDS011;49136;47.416;19.402;2022-08-19T03:01:36;19.17;;;11.55;;
63050;SDS011;49136;47.416;19.402;2022-08-19T03:04:03;27.75;;;11.68;;
63050;SDS011;49136;47.416;19.402;2022-08-19T03:06:30;25.05;;;11.35;;
63050;SDS011;49136;47.416;19.402;2022-08-19T03:08:56;24.25;;;11.38;;
63050;SDS011;49136;47.416;19.402;2022-08-19T03:11:23;19.38;;;11.07;;
63050;SDS011;49136;47.416;19.402;2022-08-19T03:13:50;20.05;;;11.05;;
63050;SDS011;49136;47.416;19.402;2022-08-19T03:16:17;18.17;;;10.50;;
63050;SDS011;49136;47.416;19.402;2022-08-19T03:18:43;20.23;;;11.57;;
63050;SDS011;49136;47.416;19.402;2022-08-19T03:21:09;17.95;;;11.43;;
63050;SDS011;49136;47.416;19.402;2022-08-19T03:23:39;21.23;;;11.73;;
63050;SDS011;49136;47.416;19.402;2022-08-19T03:26:04;21.20;;;11.20;;
63050;SDS011;49136;47.416;19.402;2022-08-19T03:28:30;16.70;;;10.90;;
63050;SDS011;49136;47.416;19.402;2022-08-19T03:30:58;22.48;;;12.18;;
63050;SDS011;49136;47.416;19.402;2022-08-19T03:33:30;18.98;;;11.35;;
63050;SDS011;49136;47.416;19.402;2022-08-19T03:38:34;18.48;;;11.20;;
63050;SDS011;49136;47.416;19.402;2022-08-19T03:41:05;21.80;;;12.35;;
63050;SDS011;49136;47.416;19.402;2022-08-19T03:43:35;21.55;;;11.98;;
63050;SDS011;49136;47.416;19.402;2022-08-19T03:46:05;15.80;;;10.60;;
63050;SDS011;49136;47.416;19.402;2022-08-19T03:48:38;36.95;;;11.90;;
63050;SDS011;49136;47.416;19.402;2022-08-19T03:51:05;21.23;;;11.55;;
63050;SDS011;49136;47.416;19.402;2022-08-19T03:53:32;27.33;;;11.52;;
63050;SDS011;49136;47.416;19.402;2022-08-19T03:55:58;20.02;;;11.63;;
63050;SDS011;49136;47.416;19.402;2022-08-19T03:58:27;23.50;;;11.80;;
63050;SDS011;49136;47.416;19.402;2022-08-19T04:00:57;20.63;;;11.20;;
63050;SDS011;49136;47.416;19.402;2022-08-19T04:03:24;20.80;;;11.40;;
63050;SDS011;49136;47.416;19.402;2022-08-19T04:05:51;19.52;;;11.75;;
63050;SDS011;49136;47.416;19.402;2022-08-19T04:08:17;27.00;;;11.18;;
63050;SDS011;49136;47.416;19.402;2022-08-19T04:10:45;18.52;;;10.73;;
63050;SDS011;49136;47.416;19.402;2022-08-19T04:13:11;20.73;;;11.10;;
63050;SDS011;49136;47.416;19.402;2022-08-19T04:15:40;24.63;;;12.10;;
63050;SDS011;49136;47.416;19.402;2022-08-19T04:18:07;18.55;;;11.30;;
63050;SDS011;49136;47.416;19.402;2022-08-19T04:20:39;18.30;;;11.23;;
63050;SDS011;49136;47.416;19.402;2022-08-19T04:23:14;19.73;;;10.70;;
63050;SDS011;49136;47.416;19.402;2022-08-19T04:25:41;19.67;;;10.30;;
63050;SDS011;49136;47.416;19.402;2022-08-19T04:28:09;21.20;;;11.68;;
63050;SDS011;49136;47.416;19.402;2022-08-19T04:30:44;24.85;;;11.88;;
63050;SDS011;49136;47.416;19.402;2022-08-19T04:33:12;25.30;;;11.20;;
63050;SDS011;49136;47.416;19.402;2022-08-19T04:35:41;22.98;;;11.00;;
63050;SDS011;49136;47.416;19.402;2022-08-19T04:38:08;24.15;;;10.10;;
63050;SDS011;49136;47.416;19.402;2022-08-19T04:40:39;21.33;;;10.77;;
63050;SDS011;49136;47.416;19.402;2022-08-19T04:43:24;19.67;;;10.73;;
63050;SDS011;49136;47.416;19.402;2022-08-19T04:45:50;16.77;;;10.15;;
63050;SDS011;49136;47.416;19.402;2022-08-19T04:48:16;19.20;;;9.90;;
63050;SDS011;49136;47.416;19.402;2022-08-19T04:50:51;19.63;;;10.05;;
63050;SDS011;49136;47.416;19.402;2022-08-19T04:53:33;18.88;;;11.02;;
63050;SDS011;49136;47.416;19.402;2022-08-19T04:55:59;25.08;;;10.02;;
63050;SDS011;49136;47.416;19.402;2022-08-19T04:58:32;18.98;;;9.65;;
63050;SDS011;49136;47.416;19.402;2022-08-19T05:00:58;20.10;;;10.10;;
63050;SDS011;49136;47.416;19.402;2022-08-19T05:03:25;16.95;;;10.23;;
63050;SDS011;49136;47.416;19.402;2022-08-19T05:05:51;20.75;;;10.40;;
63050;SDS011;49136;47.416;19.402;2022-08-19T05:08:18;19.33;;;9.48;;
63050;SDS011;49136;47.416;19.402;2022-08-19T05:10:46;19.70;;;10.40;;
63050;SDS011;49136;47.416;19.402;2022-08-19T05:13:13;15.13;;;9.80;;
63050;SDS011;49136;47.416;19.402;2022-08-19T05:15:39;19.60;;;10.15;;
63050;SDS011;49136;47.416;19.402;2022-08-19T05:18:06;20.90;;;10.25;;
63050;SDS011;49136;47.416;19.402;2022-08-19T05:20:50;20.70;;;10.07;;
63050;SDS011;49136;47.416;19.402;2022-08-19T05:23:34;23.35;;;10.60;;
63050;SDS011;49136;47.416;19.402;2022-08-19T05:25:59;22.65;;;10.63;;
63050;SDS011;49136;47.416;19.402;2022-08-19T05:28:25;17.40;;;9.57;;
63050;SDS011;49136;47.416;19.402;2022-08-19T05:30:50;21.08;;;10.15;;
63050;SDS011;49136;47.416;19.402;2022-08-19T05:33:16;23.42;;;11.00;;
63050;SDS011;49136;47.416;19.402;2022-08-19T05:35:43;19.83;;;10.48;;
63050;SDS011;49136;47.416;19.402;2022-08-19T05:38:09;17.58;;;9.45;;
63050;SDS011;49136;47.416;19.402;2022-08-19T05:40:36;16.98;;;10.15;;
63050;SDS011;49136;47.416;19.402;2022-08-19T05:43:04;16.50;;;9.75;;
63050;SDS011;49136;47.416;19.402;2022-08-19T05:45:31;23.50;;;9.85;;
63050;SDS011;49136;47.416;19.402;2022-08-19T05:47:56;26.90;;;9.48;;
63050;SDS011;49136;47.416;19.402;2022-08-19T05:50:23;17.48;;;8.20;;
63050;SDS011;49136;47.416;19.402;2022-08-19T05:52:50;18.33;;;9.38;;
63050;SDS011;49136;47.416;19.402;2022-08-19T05:55:16;17.98;;;8.95;;
63050;SDS011;49136;47.416;19.402;2022-08-19T05:57:41;24.58;;;9.65;;
63050;SDS011;49136;47.416;19.402;2022-08-19T06:00:07;19.23;;;8.63;;
63050;SDS011;49136;47.416;19.402;2022-08-19T06:02:36;29.02;;;8.85;;
63050;SDS011;49136;47.416;19.402;2022-08-19T06:05:02;16.27;;;8.45;;
63050;SDS011;49136;47.416;19.402;2022-08-19T06:07:31;15.90;;;8.35;;
63050;SDS011;49136;47.416;19.402;2022-08-19T06:09:57;19.55;;;9.25;;
63050;SDS011;49136;47.416;19.402;2022-08-19T06:12:23;17.38;;;8.73;;
63050;SDS011;49136;47.416;19.402;2022-08-19T06:14:53;23.90;;;9.23;;
63050;SDS011;49136;47.416;19.402;2022-08-19T06:17:19;17.30;;;8.18;;
63050;SDS011;49136;47.416;19.402;2022-08-19T06:19:47;14.90;;;8.40;;
63050;SDS011;49136;47.416;19.402;2022-08-19T06:22:15;14.70;;;8.50;;
63050;SDS011;49136;47.416;19.402;2022-08-19T06:24:41;16.02;;;8.45;;
63050;SDS011;49136;47.416;19.402;2022-08-19T06:27:06;15.23;;;7.80;;
63050;SDS011;49136;47.416;19.402;2022-08-19T06:29:32;14.65;;;8.25;;
63050;SDS011;49136;47.416;19.402;2022-08-19T06:31:59;18.30;;;8.93;;
63050;SDS011;49136;47.416;19.402;2022-08-19T06:34:27;17.23;;;9.63;;
63050;SDS011;49136;47.416;19.402;2022-08-19T06:36:54;14.60;;;8.73;;
63050;SDS011;49136;47.416;19.402;2022-08-19T06:39:23;19.20;;;8.43;;
63050;SDS011;49136;47.416;19.402;2022-08-19T06:41:52;18.75;;;8.95;;
63050;SDS011;49136;47.416;19.402;2022-08-19T06:44:20;14.27;;;8.02;;
63050;SDS011;49136;47.416;19.402;2022-08-19T06:46:47;21.45;;;8.02;;
63050;SDS011;49136;47.416;19.402;2022-08-19T06:49:14;13.90;;;8.32;;
63050;SDS011;49136;47.416;19.402;2022-08-19T06:51:41;15.90;;;8.18;;
63050;SDS011;49136;47.416;19.402;2022-08-19T06:54:08;18.88;;;8.30;;
63050;SDS011;49136;47.416;19.402;2022-08-19T06:56:34;18.98;;;7.68;;
63050;SDS011;49136;47.416;19.402;2022-08-19T06:59:03;16.65;;;8.30;;
63050;SDS011;49136;47.416;19.402;2022-08-19T07:01:38;14.82;;;8.55;;
63050;SDS011;49136;47.416;19.402;2022-08-19T07:04:12;18.60;;;8.32;;
63050;SDS011;49136;47.416;19.402;2022-08-19T07:06:39;13.90;;;9.65;;
63050;SDS011;49136;47.416;19.402;2022-08-19T07:09:05;12.32;;;7.75;;
63050;SDS011;49136;47.416;19.402;2022-08-19T07:11:31;16.90;;;9.05;;
63050;SDS011;49136;47.416;19.402;2022-08-19T07:13:57;15.95;;;7.30;;
63050;SDS011;49136;47.416;19.402;2022-08-19T07:16:23;11.70;;;7.85;;
63050;SDS011;49136;47.416;19.402;2022-08-19T07:18:49;17.48;;;7.63;;
63050;SDS011;49136;47.416;19.402;2022-08-19T07:21:17;15.60;;;7.65;;
63050;SDS011;49136;47.416;19.402;2022-08-19T07:23:46;15.48;;;8.85;;
63050;SDS011;49136;47.416;19.402;2022-08-19T07:26:20;21.65;;;8.20;;
63050;SDS011;49136;47.416;19.402;2022-08-19T07:28:48;10.40;;;6.85;;
63050;SDS011;49136;47.416;19.402;2022-08-19T07:31:14;11.77;;;7.43;;
63050;SDS011;49136;47.416;19.402;2022-08-19T07:33:43;14.73;;;7.45;;
63050;SDS011;49136;47.416;19.402;2022-08-19T07:36:10;15.75;;;7.00;;
63050;SDS011;49136;47.416;19.402;2022-08-19T07:38:38;16.65;;;7.15;;
63050;SDS011;49136;47.416;19.402;2022-08-19T07:41:05;15.10;;;8.23;;
63050;SDS011;49136;47.416;19.402;2022-08-19T07:43:31;13.45;;;7.45;;
63050;SDS011;49136;47.416;19.402;2022-08-19T07:45:57;17.17;;;8.57;;
63050;SDS011;49136;47.416;19.402;2022-08-19T07:48:23;15.82;;;7.93;;
63050;SDS011;49136;47.416;19.402;2022-08-19T07:50:51;13.32;;;8.02;;
63050;SDS011;49136;47.416;19.402;2022-08-19T07:53:21;10.93;;;7.43;;
63050;SDS011;49136;47.416;19.402;2022-08-19T07:55:48;16.77;;;8.13;;
63050;SDS011;49136;47.416;19.402;2022-08-19T07:58:14;15.68;;;7.50;;
63050;SDS011;49136;47.416;19.402;2022-08-19T08:00:42;17.33;;;8.43;;
63050;SDS011;49136;47.416;19.402;2022-08-19T08:03:12;14.75;;;7.88;;
63050;SDS011;49136;47.416;19.402;2022-08-19T08:05:39;21.55;;;7.68;;
63050;SDS011;49136;47.416;19.402;2022-08-19T08:08:23;11.27;;;7.13;;
63050;SDS011;49136;47.416;19.402;2022-08-19T08:11:07;16.40;;;8.60;;
63050;SDS011;49136;47.416;19.402;2022-08-19T08:13:33;15.80;;;8.95;;
63050;SDS011;49136;47.416;19.402;2022-08-19T08:16:01;18.38;;;7.20;;
63050;SDS011;49136;47.416;19.402;2022-08-19T08:18:28;11.60;;;7.47;;
63050;SDS011;49136;47.416;19.402;2022-08-19T08:20:54;12.15;;;7.45;;
63050;SDS011;49136;47.416;19.402;2022-08-19T08:23:22;13.13;;;7.82;;
63050;SDS011;49136;47.416;19.402;2022-08-19T08:25:50;15.15;;;7.88;;
63050;SDS011;49136;47.416;19.402;2022-08-19T08:28:17;14.38;;;7.90;;
63050;SDS011;49136;47.416;19.402;2022-08-19T08:30:43;12.60;;;7.38;;
63050;SDS011;49136;47.416;19.402;2022-08-19T08:33:10;11.18;;;7.22;;
63050;SDS011;49136;47.416;19.402;2022-08-19T08:35:36;11.15;;;7.07;;
63050;SDS011;49136;47.416;19.402;2022-08-19T08:38:01;14.45;;;7.57;;
63050;SDS011;49136;47.416;19.402;2022-08-19T08:43:11;11.38;;;6.55;;
63050;SDS011;49136;47.416;19.402;2022-08-19T08:45:56;9.60;;;6.38;;
63050;SDS011;49136;47.416;19.402;2022-08-19T08:48:27;14.48;;;6.93;;
63050;SDS011;49136;47.416;19.402;2022-08-19T08:50:56;10.25;;;7.07;;
63050;SDS011;49136;47.416;19.402;2022-08-19T08:53:25;11.48;;;6.97;;
63050;SDS011;49136;47.416;19.402;2022-08-19T08:55:51;19.63;;;8.07;;
63050;SDS011;49136;47.416;19.402;2022-08-19T08:58:21;12.60;;;6.45;;
63050;SDS011;49136;47.416;19.402;2022-08-19T09:00:53;12.45;;;6.28;;
63050;SDS011;49136;47.416;19.402;2022-08-19T09:05:55;10.57;;;6.28;;
63050;SDS011;49136;47.416;19.402;2022-08-19T09:09:34;12.70;;;6.53;;
63050;SDS011;49136;47.416;19.402;2022-08-19T09:17:35;15.02;;;6.20;;
63050;SDS011;49136;47.416;19.402;2022-08-19T09:20:04;8.15;;;6.18;;
63050;SDS011;49136;47.416;19.402;2022-08-19T09:22:34;13.15;;;6.10;;
63050;SDS011;49136;47.416;19.402;2022-08-19T09:25:01;12.90;;;7.97;;
63050;SDS011;49136;47.416;19.402;2022-08-19T09:27:27;9.48;;;6.30;;
63050;SDS011;49136;47.416;19.402;2022-08-19T09:29:53;8.65;;;6.25;;
63050;SDS011;49136;47.416;19.402;2022-08-19T09:32:20;11.90;;;6.35;;
63050;SDS011;49136;47.416;19.402;2022-08-19T09:34:47;15.55;;;6.18;;
63050;SDS011;49136;47.416;19.402;2022-08-19T09:37:12;8.27;;;6.45;;
63050;SDS011;49136;47.416;19.402;2022-08-19T09:39:38;14.07;;;7.97;;
63050;SDS011;49136;47.416;19.402;2022-08-19T09:42:06;10.60;;;6.30;;
63050;SDS011;49136;47.416;19.402;2022-08-19T09:44:37;8.98;;;6.57;;
63050;SDS011;49136;47.416;19.402;2022-08-19T09:47:03;15.45;;;6.43;;
63050;SDS011;49136;47.416;19.402;2022-08-19T09:49:29;10.18;;;6.50;;
63050;SDS011;49136;47.416;19.402;2022-08-19T09:51:56;7.95;;;6.40;;
63050;SDS011;49136;47.416;19.402;2022-08-19T09:54:21;9.63;;;6.28;;
63050;SDS011;49136;47.416;19.402;2022-08-19T09:56:48;15.52;;;7.30;;
63050;SDS011;49136;47.416;19.402;2022-08-19T09:59:13;10.25;;;7.60;;
63050;SDS011;49136;47.416;19.402;2022-08-19T10:01:39;25.33;;;6.97;;
63050;SDS011;49136;47.416;19.402;2022-08-19T10:04:04;9.32;;;6.07;;
63050;SDS011;49136;47.416;19.402;2022-08-19T10:06:33;24.00;;;7.85;;
63050;SDS011;49136;47.416;19.402;2022-08-19T10:09:00;8.95;;;6.43;;
63050;SDS011;49136;47.416;19.402;2022-08-19T10:11:29;13.02;;;6.78;;
63050;SDS011;49136;47.416;19.402;2022-08-19T10:13:55;16.45;;;6.53;;
63050;SDS011;49136;47.416;19.402;2022-08-19T10:16:21;11.52;;;7.00;;
63050;SDS011;49136;47.416;19.402;2022-08-19T10:18:49;13.07;;;7.57;;
63050;SDS011;49136;47.416;19.402;2022-08-19T10:21:16;16.50;;;7.43;;
63050;SDS011;49136;47.416;19.402;2022-08-19T10:23:48;11.40;;;6.47;;
63050;SDS011;49136;47.416;19.402;2022-08-19T10:26:16;12.57;;;6.38;;
63050;SDS011;49136;47.416;19.402;2022-08-19T10:28:46;12.05;;;6.40;;
63050;SDS011;49136;47.416;19.402;2022-08-19T10:31:14;14.98;;;6.70;;
63050;SDS011;49136;47.416;19.402;2022-08-19T10:33:42;10.57;;;6.60;;
63050;SDS011;49136;47.416;19.402;2022-08-19T10:36:10;12.30;;;7.10;;
63050;SDS011;49136;47.416;19.402;2022-08-19T10:38:40;8.98;;;6.47;;
63050;SDS011;49136;47.416;19.402;2022-08-19T10:41:10;8.48;;;6.40;;
63050;SDS011;49136;47.416;19.402;2022-08-19T10:43:38;13.85;;;5.90;;
63050;SDS011;49136;47.416;19.402;2022-08-19T10:46:08;14.82;;;6.38;;
63050;SDS011;49136;47.416;19.402;2022-08-19T10:48:35;13.15;;;6.78;;
63050;SDS011;49136;47.416;19.402;2022-08-19T10:51:01;8.13;;;6.38;;
63050;SDS011;49136;47.416;19.402;2022-08-19T10:53:47;12.00;;;7.78;;
63050;SDS011;49136;47.416;19.402;2022-08-19T10:56:12;13.95;;;6.35;;
63050;SDS011;49136;47.416;19.402;2022-08-19T10:58:57;11.05;;;6.28;;
63050;SDS011;49136;47.416;19.402;2022-08-19T11:01:24;11.68;;;6.32;;
63050;SDS011;49136;47.416;19.402;2022-08-19T11:03:50;18.75;;;7.72;;
63050;SDS011;49136;47.416;19.402;2022-08-19T11:06:16;11.63;;;6.95;;
63050;SDS011;49136;47.416;19.402;2022-08-19T11:08:41;11.05;;;6.28;;
63050;SDS011;49136;47.416;19.402;2022-08-19T11:11:10;9.32;;;6.65;;
63050;SDS011;49136;47.416;19.402;2022-08-19T11:13:38;10.35;;;5.55;;
63050;SDS011;49136;47.416;19.402;2022-08-19T11:16:06;12.10;;;6.43;;
63050;SDS011;49136;47.416;19.402;2022-08-19T11:18:37;11.50;;;6.22;;
63050;SDS011;49136;47.416;19.402;2022-08-19T11:21:21;10.50;;;5.85;;
63050;SDS011;49136;47.416;19.402;2022-08-19T11:23:53;9.95;;;6.28;;
63050;SDS011;49136;47.416;19.402;2022-08-19T11:26:20;8.05;;;5.50;;
63050;SDS011;49136;47.416;19.402;2022-08-19T11:28:46;9.95;;;6.93;;
63050;SDS011;49136;47.416;19.402;2022-08-19T11:31:16;9.80;;;6.20;;
63050;SDS011;49136;47.416;19.402;2022-08-19T11:33:43;9.07;;;5.63;;
63050;SDS011;49136;47.416;19.402;2022-08-19T11:36:11;10.40;;;6.18;;
63050;SDS011;49136;47.416;19.402;2022-08-19T11:38:36;9.77;;;6.38;;
63050;SDS011;49136;47.416;19.402;2022-08-19T11:41:03;9.80;;;6.78;;
63050;SDS011;49136;47.416;19.402;2022-08-19T11:43:32;8.13;;;5.93;;
63050;SDS011;49136;47.416;19.402;2022-08-19T11:45:58;9.93;;;5.95;;
63050;SDS011;49136;47.416;19.402;2022-08-19T11:48:24;10.80;;;6.10;;
63050;SDS011;49136;47.416;19.402;2022-08-19T11:50:51;9.88;;;5.68;;
63050;SDS011;49136;47.416;19.402;2022-08-19T11:53:20;13.32;;;6.68;;
63050;SDS011;49136;47.416;19.402;2022-08-19T11:55:46;14.43;;;6.22;;
63050;SDS011;49136;47.416;19.402;2022-08-19T11:58:13;10.30;;;6.47;;
63050;SDS011;49136;47.416;19.402;2022-08-19T12:00:40;8.13;;;5.63;;
63050;SDS011;49136;47.416;19.402;2022-08-19T12:03:06;11.68;;;6.00;;
63050;SDS011;49136;47.416;19.402;2022-08-19T12:05:32;11.88;;;5.40;;
63050;SDS011;49136;47.416;19.402;2022-08-19T12:07:57;9.13;;;6.00;;
63050;SDS011;49136;47.416;19.402;2022-08-19T12:10:23;15.38;;;5.93;;
63050;SDS011;49136;47.416;19.402;2022-08-19T12:12:49;12.15;;;5.43;;
63050;SDS011;49136;47.416;19.402;2022-08-19T12:15:15;11.63;;;6.30;;
63050;SDS011;49136;47.416;19.402;2022-08-19T12:17:41;12.02;;;6.22;;
63050;SDS011;49136;47.416;19.402;2022-08-19T12:20:08;13.98;;;6.00;;
63050;SDS011;49136;47.416;19.402;2022-08-19T12:22:36;7.18;;;5.03;;
63050;SDS011;49136;47.416;19.402;2022-08-19T12:25:03;12.98;;;5.55;;
63050;SDS011;49136;47.416;19.402;2022-08-19T12:27:29;13.85;;;5.55;;
63050;SDS011;49136;47.416;19.402;2022-08-19T12:29:55;9.27;;;5.53;;
63050;SDS011;49136;47.416;19.402;2022-08-19T12:32:21;9.85;;;4.47;;
63050;SDS011;49136;47.416;19.402;2022-08-19T12:34:47;9.35;;;4.72;;
63050;SDS011;49136;47.416;19.402;2022-08-19T12:37:13;8.65;;;5.03;;
63050;SDS011;49136;47.416;19.402;2022-08-19T12:39:39;9.85;;;4.85;;
63050;SDS011;49136;47.416;19.402;2022-08-19T12:42:07;17.92;;;5.30;;
63050;SDS011;49136;47.416;19.402;2022-08-19T12:44:34;21.40;;;6.60;;
63050;SDS011;49136;47.416;19.402;2022-08-19T12:47:01;12.48;;;5.55;;
63050;SDS011;49136;47.416;19.402;2022-08-19T12:49:28;15.48;;;7.07;;
63050;SDS011;49136;47.416;19.402;2022-08-19T12:51:54;11.57;;;5.93;;
63050;SDS011;49136;47.416;19.402;2022-08-19T12:54:20;19.65;;;5.82;;
63050;SDS011;49136;47.416;19.402;2022-08-19T12:56:45;14.20;;;7.10;;
63050;SDS011;49136;47.416;19.402;2022-08-19T12:59:11;16.42;;;5.78;;
63050;SDS011;49136;47.416;19.402;2022-08-19T13:01:36;17.85;;;7.07;;
63050;SDS011;49136;47.416;19.402;2022-08-19T13:04:03;12.48;;;5.68;;
63050;SDS011;49136;47.416;19.402;2022-08-19T13:06:28;13.55;;;5.78;;
63050;SDS011;49136;47.416;19.402;2022-08-19T13:08:55;11.23;;;5.97;;
63050;SDS011;49136;47.416;19.402;2022-08-19T13:11:21;14.98;;;6.82;;
63050;SDS011;49136;47.416;19.402;2022-08-19T13:13:50;15.73;;;5.80;;
63050;SDS011;49136;47.416;19.402;2022-08-19T13:16:16;12.55;;;5.75;;
63050;SDS011;49136;47.416;19.402;2022-08-19T13:18:44;11.70;;;5.13;;
63050;SDS011;49136;47.416;19.402;2022-08-19T13:21:16;12.25;;;6.03;;
63050;SDS011;49136;47.416;19.402;2022-08-19T13:23:41;11.77;;;5.85;;
63050;SDS011;49136;47.416;19.402;2022-08-19T13:26:08;11.90;;;5.82;;
63050;SDS011;49136;47.416;19.402;2022-08-19T13:28:35;13.05;;;5.65;;
63050;SDS011;49136;47.416;19.402;2022-08-19T13:31:20;9.50;;;5.75;;
63050;SDS011;49136;47.416;19.402;2022-08-19T13:34:06;11.05;;;5.53;;
63050;SDS011;49136;47.416;19.402;2022-08-19T13:36:32;12.20;;;5.38;;
63050;SDS011;49136;47.416;19.402;2022-08-19T13:38:58;10.05;;;6.22;;
63050;SDS011;49136;47.416;19.402;2022-08-19T13:41:24;14.85;;;6.50;;
63050;SDS011;49136;47.416;19.402;2022-08-19T13:43:49;21.25;;;7.07;;
63050;SDS011;49136;47.416;19.402;2022-08-19T13:46:15;14.90;;;6.32;;
63050;SDS011;49136;47.416;19.402;2022-08-19T13:48:41;11.35;;;6.35;;
63050;SDS011;49136;47.416;19.402;2022-08-19T13:51:07;11.13;;;6.35;;
63050;SDS011;49136;47.416;19.402;2022-08-19T13:53:35;9.55;;;5.65;;
63050;SDS011;49136;47.416;19.402;2022-08-19T13:56:06;11.35;;;6.13;;
63050;SDS011;49136;47.416;19.402;2022-08-19T13:58:32;13.17;;;5.57;;
63050;SDS011;49136;47.416;19.402;2022-08-19T14:00:57;9.90;;;5.40;;
63050;SDS011;49136;47.416;19.402;2022-08-19T14:03:24;12.35;;;5.97;;
63050;SDS011;49136;47.416;19.402;2022-08-19T14:05:50;10.80;;;5.82;;
63050;SDS011;49136;47.416;19.402;2022-08-19T14:08:15;19.02;;;5.70;;
63050;SDS011;49136;47.416;19.402;2022-08-19T14:10:41;15.20;;;7.38;;
63050;SDS011;49136;47.416;19.402;2022-08-19T14:13:09;10.52;;;5.22;;
63050;SDS011;49136;47.416;19.402;2022-08-19T14:15:34;11.43;;;6.03;;
63050;SDS011;49136;47.416;19.402;2022-08-19T14:17:59;14.30;;;5.93;;
63050;SDS011;49136;47.416;19.402;2022-08-19T14:20:25;14.93;;;6.78;;
63050;SDS011;49136;47.416;19.402;2022-08-19T14:22:51;12.77;;;5.45;;
63050;SDS011;49136;47.416;19.402;2022-08-19T14:25:19;17.38;;;6.43;;
63050;SDS011;49136;47.416;19.402;2022-08-19T14:27:47;12.68;;;6.03;;
63050;SDS011;49136;47.416;19.402;2022-08-19T14:30:15;12.77;;;5.47;;
63050;SDS011;49136;47.416;19.402;2022-08-19T14:32:44;13.85;;;6.93;;
63050;SDS011;49136;47.416;19.402;2022-08-19T14:35:10;14.02;;;5.43;;
63050;SDS011;49136;47.416;19.402;2022-08-19T14:37:37;18.65;;;6.18;;